sensor_id;sensor_type;location;lat;lon;timestamp;P1;durP1;ratioP1;P2;durP2;ratioP2
40659;SDS011;26753;45.544;9.232;2024-02-23T00:01:45;4.72;;;3.40;;
40659;SDS011;26753;45.544;9.232;2024-02-23T00:04:11;4.45;;;3.67;;
40659;SDS011;26753;45.544;9.232;2024-02-23T00:06:37;5.80;;;3.63;;
40659;SDS011;26753;45.544;9.232;2024-02-23T00:09:02;6.00;;;3.63;;
40659;SDS011;26753;45.544;9.232;2024-02-23T00:11:28;5.47;;;3.60;;
40659;SDS011;26753;45.544;9.232;2024-02-23T00:13:54;5.47;;;3.47;;
40659;SDS011;26753;45.544;9.232;2024-02-23T00:16:20;5.40;;;3.30;;
40659;SDS011;26753;45.544;9.232;2024-02-23T00:18:45;4.15;;;3.08;;
40659;SDS011;26753;45.544;9.232;2024-02-23T00:21:14;5.18;;;3.10;;
40659;SDS011;26753;45.544;9.232;2024-02-23T00:23:39;4.30;;;2.70;;
40659;SDS011;26753;45.544;9.232;2024-02-23T00:26:05;5.03;;;3.00;;
40659;SDS011;26753;45.544;9.232;2024-02-23T00:28:34;4.72;;;3.03;;
40659;SDS011;26753;45.544;9.232;2024-02-23T00:31:00;3.95;;;2.83;;
40659;SDS011;26753;45.544;9.232;2024-02-23T00:33:25;4.32;;;3.10;;
40659;SDS011;26753;45.544;9.232;2024-02-23T00:35:51;4.28;;;3.10;;
40659;SDS011;26753;45.544;9.232;2024-02-23T00:38:17;4.47;;;3.30;;
40659;SDS011;26753;45.544;9.232;2024-02-23T00:40:47;6.00;;;3.55;;
40659;SDS011;26753;45.544;9.232;2024-02-23T00:43:12;4.57;;;3.20;;
40659;SDS011;26753;45.544;9.232;2024-02-23T00:45:38;5.50;;;3.53;;
40659;SDS011;26753;45.544;9.232;2024-02-23T00:48:04;4.63;;;3.22;;
40659;SDS011;26753;45.544;9.232;2024-02-23T00:50:31;4.35;;;3.00;;
40659;SDS011;26753;45.544;9.232;2024-02-23T00:53:00;4.22;;;3.40;;
40659;SDS011;26753;45.544;9.232;2024-02-23T00:55:26;5.22;;;3.42;;
40659;SDS011;26753;45.544;9.232;2024-02-23T00:57:51;5.25;;;3.33;;
40659;SDS011;26753;45.544;9.232;2024-02-23T01:00:18;4.43;;;3.17;;
40659;SDS011;26753;45.544;9.232;2024-02-23T01:02:44;4.63;;;2.80;;
40659;SDS011;26753;45.544;9.232;2024-02-23T01:05:09;3.25;;;2.80;;
40659;SDS011;26753;45.544;9.232;2024-02-23T01:07:39;4.05;;;3.00;;
40659;SDS011;26753;45.544;9.232;2024-02-23T01:10:05;4.05;;;2.72;;
40659;SDS011;26753;45.544;9.232;2024-02-23T01:12:31;3.60;;;2.75;;
40659;SDS011;26753;45.544;9.232;2024-02-23T01:14:57;5.03;;;2.90;;
40659;SDS011;26753;45.544;9.232;2024-02-23T01:17:31;4.03;;;2.70;;
40659;SDS011;26753;45.544;9.232;2024-02-23T01:19:59;4.22;;;2.67;;
40659;SDS011;26753;45.544;9.232;2024-02-23T01:22:25;3.42;;;2.58;;
40659;SDS011;26753;45.544;9.232;2024-02-23T01:24:51;3.35;;;2.50;;
40659;SDS011;26753;45.544;9.232;2024-02-23T01:27:17;3.92;;;2.55;;
40659;SDS011;26753;45.544;9.232;2024-02-23T01:29:43;3.15;;;2.40;;
40659;SDS011;26753;45.544;9.232;2024-02-23T01:32:12;4.00;;;2.55;;
40659;SDS011;26753;45.544;9.232;2024-02-23T01:34:40;3.97;;;2.22;;
40659;SDS011;26753;45.544;9.232;2024-02-23T01:37:18;2.20;;;1.95;;
40659;SDS011;26753;45.544;9.232;2024-02-23T01:39:47;3.17;;;2.10;;
40659;SDS011;26753;45.544;9.232;2024-02-23T01:42:16;2.83;;;2.03;;
40659;SDS011;26753;45.544;9.232;2024-02-23T01:44:52;3.35;;;2.00;;
40659;SDS011;26753;45.544;9.232;2024-02-23T01:47:20;3.25;;;2.10;;
40659;SDS011;26753;45.544;9.232;2024-02-23T01:49:46;3.20;;;1.90;;
40659;SDS011;26753;45.544;9.232;2024-02-23T01:52:13;2.40;;;2.00;;
40659;SDS011;26753;45.544;9.232;2024-02-23T01:54:40;2.25;;;1.80;;
40659;SDS011;26753;45.544;9.232;2024-02-23T01:57:06;2.50;;;1.50;;
40659;SDS011;26753;45.544;9.232;2024-02-23T01:59:34;1.92;;;1.27;;
40659;SDS011;26753;45.544;9.232;2024-02-23T02:02:02;1.92;;;1.40;;
40659;SDS011;26753;45.544;9.232;2024-02-23T02:04:28;1.40;;;1.30;;
40659;SDS011;26753;45.544;9.232;2024-02-23T02:06:54;1.30;;;1.20;;
40659;SDS011;26753;45.544;9.232;2024-02-23T02:09:21;1.40;;;1.30;;
40659;SDS011;26753;45.544;9.232;2024-02-23T02:11:47;2.40;;;1.40;;
40659;SDS011;26753;45.544;9.232;2024-02-23T02:14:16;2.05;;;1.35;;
40659;SDS011;26753;45.544;9.232;2024-02-23T02:16:42;2.25;;;1.33;;
40659;SDS011;26753;45.544;9.232;2024-02-23T02:19:11;1.95;;;1.17;;
40659;SDS011;26753;45.544;9.232;2024-02-23T02:21:38;1.67;;;1.30;;
40659;SDS011;26753;45.544;9.232;2024-02-23T02:24:04;1.42;;;1.30;;
40659;SDS011;26753;45.544;9.232;2024-02-23T02:26:36;2.00;;;1.35;;
40659;SDS011;26753;45.544;9.232;2024-02-23T02:29:05;2.95;;;1.40;;
40659;SDS011;26753;45.544;9.232;2024-02-23T02:31:31;2.35;;;1.40;;
40659;SDS011;26753;45.544;9.232;2024-02-23T02:34:02;2.00;;;1.42;;
40659;SDS011;26753;45.544;9.232;2024-02-23T02:36:29;2.13;;;1.45;;
40659;SDS011;26753;45.544;9.232;2024-02-23T02:38:55;2.70;;;1.50;;
40659;SDS011;26753;45.544;9.232;2024-02-23T02:41:53;1.98;;;1.58;;
40659;SDS011;26753;45.544;9.232;2024-02-23T02:44:19;2.05;;;1.50;;
40659;SDS011;26753;45.544;9.232;2024-02-23T02:46:44;2.42;;;1.40;;
40659;SDS011;26753;45.544;9.232;2024-02-23T02:49:16;2.60;;;1.92;;
40659;SDS011;26753;45.544;9.232;2024-02-23T02:51:41;3.17;;;2.15;;
40659;SDS011;26753;45.544;9.232;2024-02-23T02:54:11;2.22;;;1.80;;
40659;SDS011;26753;45.544;9.232;2024-02-23T02:56:41;4.22;;;1.50;;
40659;SDS011;26753;45.544;9.232;2024-02-23T02:59:12;2.88;;;1.92;;
40659;SDS011;26753;45.544;9.232;2024-02-23T03:01:43;2.25;;;1.85;;
40659;SDS011;26753;45.544;9.232;2024-02-23T03:04:11;2.30;;;1.90;;
40659;SDS011;26753;45.544;9.232;2024-02-23T03:09:16;3.33;;;2.10;;
40659;SDS011;26753;45.544;9.232;2024-02-23T03:11:42;4.68;;;3.00;;
40659;SDS011;26753;45.544;9.232;2024-02-23T03:14:07;4.50;;;2.30;;
40659;SDS011;26753;45.544;9.232;2024-02-23T03:16:35;3.38;;;2.22;;
40659;SDS011;26753;45.544;9.232;2024-02-23T03:19:02;3.88;;;2.65;;
40659;SDS011;26753;45.544;9.232;2024-02-23T03:21:28;3.67;;;2.60;;
40659;SDS011;26753;45.544;9.232;2024-02-23T03:23:55;4.65;;;2.60;;
40659;SDS011;26753;45.544;9.232;2024-02-23T03:26:24;4.95;;;3.30;;
40659;SDS011;26753;45.544;9.232;2024-02-23T03:28:49;3.85;;;2.60;;
40659;SDS011;26753;45.544;9.232;2024-02-23T03:31:15;4.53;;;2.50;;
40659;SDS011;26753;45.544;9.232;2024-02-23T03:33:41;4.13;;;2.70;;
40659;SDS011;26753;45.544;9.232;2024-02-23T03:36:07;4.63;;;2.45;;
40659;SDS011;26753;45.544;9.232;2024-02-23T03:38:36;4.10;;;2.72;;
40659;SDS011;26753;45.544;9.232;2024-02-23T03:41:08;4.20;;;3.00;;
40659;SDS011;26753;45.544;9.232;2024-02-23T03:43:37;5.45;;;2.80;;
40659;SDS011;26753;45.544;9.232;2024-02-23T03:46:05;3.80;;;2.40;;
40659;SDS011;26753;45.544;9.232;2024-02-23T03:48:36;3.35;;;2.42;;
40659;SDS011;26753;45.544;9.232;2024-02-23T03:51:03;2.83;;;2.30;;
40659;SDS011;26753;45.544;9.232;2024-02-23T03:53:30;4.32;;;2.50;;
40659;SDS011;26753;45.544;9.232;2024-02-23T03:55:59;3.85;;;2.50;;
40659;SDS011;26753;45.544;9.232;2024-02-23T03:58:25;3.08;;;2.17;;
40659;SDS011;26753;45.544;9.232;2024-02-23T04:00:51;3.88;;;2.67;;
40659;SDS011;26753;45.544;9.232;2024-02-23T04:03:41;3.67;;;2.20;;
40659;SDS011;26753;45.544;9.232;2024-02-23T04:06:10;3.45;;;2.38;;
40659;SDS011;26753;45.544;9.232;2024-02-23T04:08:36;4.25;;;3.00;;
40659;SDS011;26753;45.544;9.232;2024-02-23T04:11:02;3.92;;;2.70;;
40659;SDS011;26753;45.544;9.232;2024-02-23T04:13:31;4.45;;;2.75;;
40659;SDS011;26753;45.544;9.232;2024-02-23T04:15:57;5.63;;;3.20;;
40659;SDS011;26753;45.544;9.232;2024-02-23T04:18:23;4.20;;;2.70;;
40659;SDS011;26753;45.544;9.232;2024-02-23T04:20:48;4.90;;;3.10;;
40659;SDS011;26753;45.544;9.232;2024-02-23T04:23:14;4.18;;;2.70;;
40659;SDS011;26753;45.544;9.232;2024-02-23T04:25:40;4.70;;;3.00;;
40659;SDS011;26753;45.544;9.232;2024-02-23T04:28:09;3.70;;;2.88;;
40659;SDS011;26753;45.544;9.232;2024-02-23T04:30:35;5.40;;;3.28;;
40659;SDS011;26753;45.544;9.232;2024-02-23T04:33:03;5.20;;;2.97;;
40659;SDS011;26753;45.544;9.232;2024-02-23T04:35:29;4.00;;;2.92;;
40659;SDS011;26753;45.544;9.232;2024-02-23T04:37:55;4.97;;;3.10;;
40659;SDS011;26753;45.544;9.232;2024-02-23T04:40:21;6.00;;;3.10;;
40659;SDS011;26753;45.544;9.232;2024-02-23T04:42:49;4.93;;;3.10;;
40659;SDS011;26753;45.544;9.232;2024-02-23T04:45:18;4.82;;;3.33;;
40659;SDS011;26753;45.544;9.232;2024-02-23T04:47:53;6.22;;;3.28;;
40659;SDS011;26753;45.544;9.232;2024-02-23T04:50:19;4.32;;;3.25;;
40659;SDS011;26753;45.544;9.232;2024-02-23T04:52:45;7.00;;;3.28;;
40659;SDS011;26753;45.544;9.232;2024-02-23T04:55:13;5.45;;;3.50;;
40659;SDS011;26753;45.544;9.232;2024-02-23T04:57:39;6.47;;;3.58;;
40659;SDS011;26753;45.544;9.232;2024-02-23T05:00:05;6.00;;;3.20;;
40659;SDS011;26753;45.544;9.232;2024-02-23T05:02:42;5.10;;;3.40;;
40659;SDS011;26753;45.544;9.232;2024-02-23T05:05:08;4.35;;;3.10;;
40659;SDS011;26753;45.544;9.232;2024-02-23T05:07:34;4.80;;;3.22;;
40659;SDS011;26753;45.544;9.232;2024-02-23T05:10:00;3.75;;;2.90;;
40659;SDS011;26753;45.544;9.232;2024-02-23T05:12:28;5.78;;;3.25;;
40659;SDS011;26753;45.544;9.232;2024-02-23T05:14:54;5.75;;;3.33;;
40659;SDS011;26753;45.544;9.232;2024-02-23T05:17:20;8.38;;;3.80;;
40659;SDS011;26753;45.544;9.232;2024-02-23T05:19:46;4.00;;;2.70;;
40659;SDS011;26753;45.544;9.232;2024-02-23T05:22:12;4.00;;;3.00;;
40659;SDS011;26753;45.544;9.232;2024-02-23T05:24:38;5.70;;;2.80;;
40659;SDS011;26753;45.544;9.232;2024-02-23T05:27:04;4.88;;;2.70;;
40659;SDS011;26753;45.544;9.232;2024-02-23T05:29:30;5.18;;;3.30;;
40659;SDS011;26753;45.544;9.232;2024-02-23T05:31:56;4.57;;;2.95;;
40659;SDS011;26753;45.544;9.232;2024-02-23T05:34:22;6.95;;;4.45;;
40659;SDS011;26753;45.544;9.232;2024-02-23T05:36:48;4.15;;;3.05;;
40659;SDS011;26753;45.544;9.232;2024-02-23T05:39:15;5.28;;;3.20;;
40659;SDS011;26753;45.544;9.232;2024-02-23T05:41:42;4.63;;;3.08;;
40659;SDS011;26753;45.544;9.232;2024-02-23T05:44:08;6.43;;;3.88;;
40659;SDS011;26753;45.544;9.232;2024-02-23T05:46:34;5.22;;;3.10;;
40659;SDS011;26753;45.544;9.232;2024-02-23T05:49:01;4.78;;;2.97;;
40659;SDS011;26753;45.544;9.232;2024-02-23T05:51:28;3.47;;;2.67;;
40659;SDS011;26753;45.544;9.232;2024-02-23T05:53:54;4.07;;;2.97;;
40659;SDS011;26753;45.544;9.232;2024-02-23T05:56:20;3.38;;;2.40;;
40659;SDS011;26753;45.544;9.232;2024-02-23T05:58:46;6.50;;;3.05;;
40659;SDS011;26753;45.544;9.232;2024-02-23T06:01:11;5.20;;;2.78;;
40659;SDS011;26753;45.544;9.232;2024-02-23T06:03:37;5.13;;;2.97;;
40659;SDS011;26753;45.544;9.232;2024-02-23T06:06:06;5.88;;;3.83;;
40659;SDS011;26753;45.544;9.232;2024-02-23T06:08:33;4.95;;;3.63;;
40659;SDS011;26753;45.544;9.232;2024-02-23T06:10:59;4.88;;;3.60;;
40659;SDS011;26753;45.544;9.232;2024-02-23T06:13:25;5.40;;;4.00;;
40659;SDS011;26753;45.544;9.232;2024-02-23T06:15:51;4.85;;;3.95;;
40659;SDS011;26753;45.544;9.232;2024-02-23T06:18:17;5.50;;;4.15;;
40659;SDS011;26753;45.544;9.232;2024-02-23T06:20:43;7.95;;;4.32;;
40659;SDS011;26753;45.544;9.232;2024-02-23T06:23:09;6.85;;;4.65;;
40659;SDS011;26753;45.544;9.232;2024-02-23T06:25:34;5.28;;;3.13;;
40659;SDS011;26753;45.544;9.232;2024-02-23T06:28:02;5.97;;;3.13;;
40659;SDS011;26753;45.544;9.232;2024-02-23T06:30:27;4.90;;;3.40;;
40659;SDS011;26753;45.544;9.232;2024-02-23T06:32:53;4.32;;;3.20;;
40659;SDS011;26753;45.544;9.232;2024-02-23T06:35:19;4.03;;;3.10;;
40659;SDS011;26753;45.544;9.232;2024-02-23T06:50:12;8.23;;;4.57;;
40659;SDS011;26753;45.544;9.232;2024-02-23T06:52:38;10.02;;;4.35;;
40659;SDS011;26753;45.544;9.232;2024-02-23T06:55:07;7.93;;;5.18;;
40659;SDS011;26753;45.544;9.232;2024-02-23T06:57:34;6.72;;;3.65;;
40659;SDS011;26753;45.544;9.232;2024-02-23T07:00:01;5.25;;;3.95;;
40659;SDS011;26753;45.544;9.232;2024-02-23T07:02:28;7.40;;;4.72;;
40659;SDS011;26753;45.544;9.232;2024-02-23T07:04:56;9.50;;;5.38;;
40659;SDS011;26753;45.544;9.232;2024-02-23T07:07:23;5.25;;;3.30;;
40659;SDS011;26753;45.544;9.232;2024-02-23T07:09:49;5.30;;;3.35;;
40659;SDS011;26753;45.544;9.232;2024-02-23T07:12:17;4.90;;;2.80;;
40659;SDS011;26753;45.544;9.232;2024-02-23T07:14:42;5.65;;;3.38;;
40659;SDS011;26753;45.544;9.232;2024-02-23T07:17:08;4.72;;;3.45;;
40659;SDS011;26753;45.544;9.232;2024-02-23T07:19:35;6.47;;;3.65;;
40659;SDS011;26753;45.544;9.232;2024-02-23T07:22:07;5.30;;;2.58;;
40659;SDS011;26753;45.544;9.232;2024-02-23T07:24:35;4.88;;;2.88;;
40659;SDS011;26753;45.544;9.232;2024-02-23T07:27:32;5.25;;;3.60;;
40659;SDS011;26753;45.544;9.232;2024-02-23T07:30:01;4.38;;;3.20;;
40659;SDS011;26753;45.544;9.232;2024-02-23T07:32:28;6.55;;;3.95;;
40659;SDS011;26753;45.544;9.232;2024-02-23T07:34:54;6.22;;;3.50;;
40659;SDS011;26753;45.544;9.232;2024-02-23T07:37:20;6.28;;;3.20;;
40659;SDS011;26753;45.544;9.232;2024-02-23T07:39:46;5.47;;;3.30;;
40659;SDS011;26753;45.544;9.232;2024-02-23T07:42:12;9.27;;;3.95;;
40659;SDS011;26753;45.544;9.232;2024-02-23T07:44:39;8.38;;;4.43;;
40659;SDS011;26753;45.544;9.232;2024-02-23T07:47:05;7.47;;;4.32;;
40659;SDS011;26753;45.544;9.232;2024-02-23T07:49:31;6.95;;;4.22;;
40659;SDS011;26753;45.544;9.232;2024-02-23T07:51:57;5.80;;;4.05;;
40659;SDS011;26753;45.544;9.232;2024-02-23T07:54:23;7.32;;;4.40;;
40659;SDS011;26753;45.544;9.232;2024-02-23T07:56:48;7.00;;;4.13;;
40659;SDS011;26753;45.544;9.232;2024-02-23T07:59:14;5.82;;;4.40;;
40659;SDS011;26753;45.544;9.232;2024-02-23T08:01:40;6.97;;;4.10;;
40659;SDS011;26753;45.544;9.232;2024-02-23T08:04:06;7.10;;;4.70;;
40659;SDS011;26753;45.544;9.232;2024-02-23T08:06:32;9.10;;;5.15;;
40659;SDS011;26753;45.544;9.232;2024-02-23T08:08:57;7.93;;;4.38;;
40659;SDS011;26753;45.544;9.232;2024-02-23T08:11:23;6.55;;;4.00;;
40659;SDS011;26753;45.544;9.232;2024-02-23T08:13:52;5.53;;;3.80;;
40659;SDS011;26753;45.544;9.232;2024-02-23T08:16:18;5.18;;;3.80;;
40659;SDS011;26753;45.544;9.232;2024-02-23T08:18:44;6.80;;;3.75;;
40659;SDS011;26753;45.544;9.232;2024-02-23T08:21:10;5.35;;;3.75;;
40659;SDS011;26753;45.544;9.232;2024-02-23T08:23:36;7.95;;;4.13;;
40659;SDS011;26753;45.544;9.232;2024-02-23T08:26:02;7.20;;;4.45;;
40659;SDS011;26753;45.544;9.232;2024-02-23T08:28:37;7.85;;;4.25;;
40659;SDS011;26753;45.544;9.232;2024-02-23T08:31:06;7.57;;;5.43;;
40659;SDS011;26753;45.544;9.232;2024-02-23T08:33:32;5.90;;;4.68;;
40659;SDS011;26753;45.544;9.232;2024-02-23T08:49:18;7.45;;;5.43;;
40659;SDS011;26753;45.544;9.232;2024-02-23T08:51:44;7.10;;;5.03;;
40659;SDS011;26753;45.544;9.232;2024-02-23T08:54:09;8.27;;;5.25;;
40659;SDS011;26753;45.544;9.232;2024-02-23T08:56:38;8.32;;;4.95;;
40659;SDS011;26753;45.544;9.232;2024-02-23T08:59:04;8.25;;;5.22;;
40659;SDS011;26753;45.544;9.232;2024-02-23T09:01:30;7.82;;;5.70;;
40659;SDS011;26753;45.544;9.232;2024-02-23T09:03:55;8.82;;;5.00;;
40659;SDS011;26753;45.544;9.232;2024-02-23T09:06:21;8.30;;;4.90;;
40659;SDS011;26753;45.544;9.232;2024-02-23T09:08:47;21.05;;;5.13;;
40659;SDS011;26753;45.544;9.232;2024-02-23T09:11:12;8.32;;;4.85;;
40659;SDS011;26753;45.544;9.232;2024-02-23T09:13:40;5.75;;;4.15;;
40659;SDS011;26753;45.544;9.232;2024-02-23T09:16:07;8.68;;;4.55;;
40659;SDS011;26753;45.544;9.232;2024-02-23T09:18:33;8.70;;;4.88;;
40659;SDS011;26753;45.544;9.232;2024-02-23T09:20:59;9.00;;;5.60;;
40659;SDS011;26753;45.544;9.232;2024-02-23T09:23:25;9.15;;;6.15;;
40659;SDS011;26753;45.544;9.232;2024-02-23T09:25:51;10.90;;;6.30;;
40659;SDS011;26753;45.544;9.232;2024-02-23T09:28:17;10.43;;;6.90;;
40659;SDS011;26753;45.544;9.232;2024-02-23T09:30:42;10.70;;;6.80;;
40659;SDS011;26753;45.544;9.232;2024-02-23T09:33:08;12.23;;;6.63;;
40659;SDS011;26753;45.544;9.232;2024-02-23T09:35:33;8.40;;;6.10;;
40659;SDS011;26753;45.544;9.232;2024-02-23T09:37:59;10.18;;;6.78;;
40659;SDS011;26753;45.544;9.232;2024-02-23T09:40:25;9.00;;;5.88;;
40659;SDS011;26753;45.544;9.232;2024-02-23T09:42:54;9.98;;;6.60;;
40659;SDS011;26753;45.544;9.232;2024-02-23T09:45:22;8.75;;;6.60;;
40659;SDS011;26753;45.544;9.232;2024-02-23T09:47:48;10.75;;;6.60;;
40659;SDS011;26753;45.544;9.232;2024-02-23T09:50:14;8.38;;;5.80;;
40659;SDS011;26753;45.544;9.232;2024-02-23T09:52:42;9.80;;;6.30;;
40659;SDS011;26753;45.544;9.232;2024-02-23T09:55:08;12.38;;;7.32;;
40659;SDS011;26753;45.544;9.232;2024-02-23T09:57:35;12.45;;;6.63;;
40659;SDS011;26753;45.544;9.232;2024-02-23T10:00:01;10.75;;;6.63;;
40659;SDS011;26753;45.544;9.232;2024-02-23T10:02:31;7.97;;;6.07;;
40659;SDS011;26753;45.544;9.232;2024-02-23T10:04:57;12.35;;;6.00;;
40659;SDS011;26753;45.544;9.232;2024-02-23T10:07:24;9.50;;;5.80;;
40659;SDS011;26753;45.544;9.232;2024-02-23T10:09:50;8.13;;;5.57;;
40659;SDS011;26753;45.544;9.232;2024-02-23T10:12:17;8.15;;;5.50;;
40659;SDS011;26753;45.544;9.232;2024-02-23T10:14:43;7.70;;;5.57;;
40659;SDS011;26753;45.544;9.232;2024-02-23T10:17:08;7.28;;;5.10;;
40659;SDS011;26753;45.544;9.232;2024-02-23T10:19:34;6.57;;;5.10;;
40659;SDS011;26753;45.544;9.232;2024-02-23T10:22:00;9.25;;;5.50;;
40659;SDS011;26753;45.544;9.232;2024-02-23T10:24:26;9.60;;;5.55;;
40659;SDS011;26753;45.544;9.232;2024-02-23T10:26:51;8.68;;;5.30;;
40659;SDS011;26753;45.544;9.232;2024-02-23T10:29:17;7.82;;;4.72;;
40659;SDS011;26753;45.544;9.232;2024-02-23T10:31:44;9.65;;;4.90;;
40659;SDS011;26753;45.544;9.232;2024-02-23T10:34:17;8.15;;;4.15;;
40659;SDS011;26753;45.544;9.232;2024-02-23T10:36:44;7.72;;;4.60;;
40659;SDS011;26753;45.544;9.232;2024-02-23T10:39:17;7.03;;;4.55;;
40659;SDS011;26753;45.544;9.232;2024-02-23T10:42:08;7.20;;;4.47;;
40659;SDS011;26753;45.544;9.232;2024-02-23T10:44:33;9.90;;;5.13;;
40659;SDS011;26753;45.544;9.232;2024-02-23T10:47:00;8.88;;;4.97;;
40659;SDS011;26753;45.544;9.232;2024-02-23T10:49:28;10.57;;;4.85;;
40659;SDS011;26753;45.544;9.232;2024-02-23T10:51:54;8.32;;;5.10;;
40659;SDS011;26753;45.544;9.232;2024-02-23T10:54:20;8.88;;;4.70;;
40659;SDS011;26753;45.544;9.232;2024-02-23T10:56:48;6.72;;;4.88;;
40659;SDS011;26753;45.544;9.232;2024-02-23T10:59:15;7.15;;;4.50;;
40659;SDS011;26753;45.544;9.232;2024-02-23T11:01:44;6.13;;;4.70;;
40659;SDS011;26753;45.544;9.232;2024-02-23T11:04:14;6.00;;;4.90;;
40659;SDS011;26753;45.544;9.232;2024-02-23T11:06:41;8.05;;;5.50;;
40659;SDS011;26753;45.544;9.232;2024-02-23T11:09:08;11.43;;;6.20;;
40659;SDS011;26753;45.544;9.232;2024-02-23T11:11:38;7.07;;;5.82;;
40659;SDS011;26753;45.544;9.232;2024-02-23T11:14:07;8.57;;;6.30;;
40659;SDS011;26753;45.544;9.232;2024-02-23T11:16:38;9.38;;;6.05;;
40659;SDS011;26753;45.544;9.232;2024-02-23T11:19:09;10.30;;;6.63;;
40659;SDS011;26753;45.544;9.232;2024-02-23T11:21:36;9.48;;;6.53;;
40659;SDS011;26753;45.544;9.232;2024-02-23T11:24:06;9.32;;;6.32;;
40659;SDS011;26753;45.544;9.232;2024-02-23T11:26:32;9.63;;;5.80;;
40659;SDS011;26753;45.544;9.232;2024-02-23T11:28:58;8.18;;;5.75;;
40659;SDS011;26753;45.544;9.232;2024-02-23T11:31:34;6.68;;;4.82;;
40659;SDS011;26753;45.544;9.232;2024-02-23T11:34:00;6.95;;;5.10;;
40659;SDS011;26753;45.544;9.232;2024-02-23T11:36:29;7.65;;;4.97;;
40659;SDS011;26753;45.544;9.232;2024-02-23T11:38:57;6.75;;;4.22;;
40659;SDS011;26753;45.544;9.232;2024-02-23T11:41:25;5.78;;;4.00;;
40659;SDS011;26753;45.544;9.232;2024-02-23T11:43:52;5.60;;;4.10;;
40659;SDS011;26753;45.544;9.232;2024-02-23T11:46:20;6.00;;;4.03;;
40659;SDS011;26753;45.544;9.232;2024-02-23T11:48:47;5.20;;;4.10;;
40659;SDS011;26753;45.544;9.232;2024-02-23T11:51:18;6.22;;;3.83;;
40659;SDS011;26753;45.544;9.232;2024-02-23T11:53:48;6.53;;;4.18;;
40659;SDS011;26753;45.544;9.232;2024-02-23T11:56:14;6.15;;;4.60;;
40659;SDS011;26753;45.544;9.232;2024-02-23T11:58:40;6.05;;;4.30;;
40659;SDS011;26753;45.544;9.232;2024-02-23T12:01:06;5.57;;;4.38;;
40659;SDS011;26753;45.544;9.232;2024-02-23T12:03:32;7.72;;;4.65;;
40659;SDS011;26753;45.544;9.232;2024-02-23T12:06:00;7.28;;;4.65;;
40659;SDS011;26753;45.544;9.232;2024-02-23T12:08:26;6.63;;;4.70;;
40659;SDS011;26753;45.544;9.232;2024-02-23T12:10:55;6.60;;;4.72;;
40659;SDS011;26753;45.544;9.232;2024-02-23T12:13:21;4.80;;;4.10;;
40659;SDS011;26753;45.544;9.232;2024-02-23T12:15:48;5.97;;;4.10;;
40659;SDS011;26753;45.544;9.232;2024-02-23T12:18:17;6.15;;;4.28;;
40659;SDS011;26753;45.544;9.232;2024-02-23T12:20:48;6.38;;;4.25;;
40659;SDS011;26753;45.544;9.232;2024-02-23T12:23:14;7.38;;;4.55;;
40659;SDS011;26753;45.544;9.232;2024-02-23T12:25:40;6.55;;;4.45;;
40659;SDS011;26753;45.544;9.232;2024-02-23T12:28:05;5.90;;;4.20;;
40659;SDS011;26753;45.544;9.232;2024-02-23T12:30:31;5.95;;;4.50;;
40659;SDS011;26753;45.544;9.232;2024-02-23T12:33:07;5.90;;;4.72;;
40659;SDS011;26753;45.544;9.232;2024-02-23T12:35:33;6.45;;;4.80;;
40659;SDS011;26753;45.544;9.232;2024-02-23T12:38:00;7.00;;;4.80;;
40659;SDS011;26753;45.544;9.232;2024-02-23T12:40:26;12.30;;;5.35;;
40659;SDS011;26753;45.544;9.232;2024-02-23T12:42:52;12.73;;;5.60;;
40659;SDS011;26753;45.544;9.232;2024-02-23T12:45:18;8.05;;;4.88;;
40659;SDS011;26753;45.544;9.232;2024-02-23T12:47:43;6.47;;;4.95;;
40659;SDS011;26753;45.544;9.232;2024-02-23T12:50:09;6.45;;;5.13;;
40659;SDS011;26753;45.544;9.232;2024-02-23T12:52:36;7.72;;;5.10;;
40659;SDS011;26753;45.544;9.232;2024-02-23T12:55:03;6.25;;;4.70;;
40659;SDS011;26753;45.544;9.232;2024-02-23T12:57:29;5.75;;;4.80;;
40659;SDS011;26753;45.544;9.232;2024-02-23T12:59:55;5.90;;;4.88;;
40659;SDS011;26753;45.544;9.232;2024-02-23T13:02:21;7.72;;;5.43;;
40659;SDS011;26753;45.544;9.232;2024-02-23T13:04:46;7.25;;;5.20;;
40659;SDS011;26753;45.544;9.232;2024-02-23T13:07:16;9.20;;;6.35;;
40659;SDS011;26753;45.544;9.232;2024-02-23T13:09:42;7.93;;;5.10;;
40659;SDS011;26753;45.544;9.232;2024-02-23T13:12:08;9.40;;;5.32;;
40659;SDS011;26753;45.544;9.232;2024-02-23T13:14:34;7.95;;;5.82;;
40659;SDS011;26753;45.544;9.232;2024-02-23T13:16:59;7.75;;;5.97;;
40659;SDS011;26753;45.544;9.232;2024-02-23T13:19:25;8.23;;;5.65;;
40659;SDS011;26753;45.544;9.232;2024-02-23T13:21:51;11.38;;;5.60;;
40659;SDS011;26753;45.544;9.232;2024-02-23T13:24:18;7.78;;;6.00;;
40659;SDS011;26753;45.544;9.232;2024-02-23T13:26:43;8.25;;;5.95;;
40659;SDS011;26753;45.544;9.232;2024-02-23T13:29:09;8.68;;;5.75;;
40659;SDS011;26753;45.544;9.232;2024-02-23T13:31:35;8.93;;;6.10;;
40659;SDS011;26753;45.544;9.232;2024-02-23T13:34:00;7.07;;;5.50;;
40659;SDS011;26753;45.544;9.232;2024-02-23T13:36:26;7.88;;;4.78;;
40659;SDS011;26753;45.544;9.232;2024-02-23T13:38:52;5.72;;;4.43;;
40659;SDS011;26753;45.544;9.232;2024-02-23T13:41:17;5.40;;;4.32;;
40659;SDS011;26753;45.544;9.232;2024-02-23T13:43:43;5.78;;;4.88;;
40659;SDS011;26753;45.544;9.232;2024-02-23T13:46:09;7.13;;;5.40;;
40659;SDS011;26753;45.544;9.232;2024-02-23T13:48:35;7.45;;;5.72;;
40659;SDS011;26753;45.544;9.232;2024-02-23T13:51:01;10.65;;;6.15;;
40659;SDS011;26753;45.544;9.232;2024-02-23T13:53:29;9.23;;;6.75;;
40659;SDS011;26753;45.544;9.232;2024-02-23T13:55:56;12.27;;;8.00;;
40659;SDS011;26753;45.544;9.232;2024-02-23T13:58:22;13.27;;;9.00;;
40659;SDS011;26753;45.544;9.232;2024-02-23T14:00:48;12.52;;;8.43;;
40659;SDS011;26753;45.544;9.232;2024-02-23T14:03:15;8.43;;;7.03;;
40659;SDS011;26753;45.544;9.232;2024-02-23T14:05:45;7.22;;;6.10;;
40659;SDS011;26753;45.544;9.232;2024-02-23T14:08:12;9.63;;;5.63;;
40659;SDS011;26753;45.544;9.232;2024-02-23T14:10:37;7.38;;;4.70;;
40659;SDS011;26753;45.544;9.232;2024-02-23T14:13:04;10.38;;;4.50;;
40659;SDS011;26753;45.544;9.232;2024-02-23T14:15:30;6.43;;;4.10;;
40659;SDS011;26753;45.544;9.232;2024-02-23T14:17:57;5.45;;;4.20;;
40659;SDS011;26753;45.544;9.232;2024-02-23T14:20:22;8.60;;;4.13;;
40659;SDS011;26753;45.544;9.232;2024-02-23T14:22:48;7.22;;;3.95;;
40659;SDS011;26753;45.544;9.232;2024-02-23T14:25:15;7.75;;;4.00;;
40659;SDS011;26753;45.544;9.232;2024-02-23T14:27:41;7.80;;;4.30;;
40659;SDS011;26753;45.544;9.232;2024-02-23T14:30:07;7.55;;;4.70;;
40659;SDS011;26753;45.544;9.232;2024-02-23T14:32:33;7.43;;;5.95;;
40659;SDS011;26753;45.544;9.232;2024-02-23T14:35:01;9.07;;;6.80;;
40659;SDS011;26753;45.544;9.232;2024-02-23T14:37:28;9.55;;;6.50;;
40659;SDS011;26753;45.544;9.232;2024-02-23T14:39:54;8.15;;;6.88;;
40659;SDS011;26753;45.544;9.232;2024-02-23T14:42:19;9.88;;;7.47;;
40659;SDS011;26753;45.544;9.232;2024-02-23T14:44:45;10.32;;;8.57;;
40659;SDS011;26753;45.544;9.232;2024-02-23T14:47:11;11.35;;;8.73;;
40659;SDS011;26753;45.544;9.232;2024-02-23T14:49:37;12.85;;;9.23;;
40659;SDS011;26753;45.544;9.232;2024-02-23T14:52:03;13.05;;;9.90;;
40659;SDS011;26753;45.544;9.232;2024-02-23T14:54:29;13.50;;;9.48;;
40659;SDS011;26753;45.544;9.232;2024-02-23T14:56:55;13.73;;;10.10;;
40659;SDS011;26753;45.544;9.232;2024-02-23T14:59:21;14.57;;;11.80;;
40659;SDS011;26753;45.544;9.232;2024-02-23T15:01:46;15.00;;;10.43;;
40659;SDS011;26753;45.544;9.232;2024-02-23T15:04:12;14.48;;;9.32;;
40659;SDS011;26753;45.544;9.232;2024-02-23T15:06:38;11.30;;;9.20;;
40659;SDS011;26753;45.544;9.232;2024-02-23T15:09:03;12.13;;;8.63;;
40659;SDS011;26753;45.544;9.232;2024-02-23T15:11:29;14.20;;;8.60;;
40659;SDS011;26753;45.544;9.232;2024-02-23T15:13:56;10.85;;;8.38;;